createdAt,value
2023-03-11T00:01:27.007Z,0.98
2023-03-11T00:03:54.917Z,0.91
2023-03-11T00:06:24.199Z,0.92
2023-03-11T00:08:52.402Z,0.92
2023-03-11T00:11:22.492Z,0.75
2023-03-11T00:13:50.475Z,0.81
2023-03-11T00:16:18.357Z,0.91
2023-03-11T00:18:46.306Z,0.86
2023-03-11T00:21:17.390Z,0.79
2023-03-11T00:23:46.808Z,0.86
2023-03-11T00:26:15.342Z,0.81
2023-03-11T00:28:43.225Z,0.85
2023-03-11T00:31:13.054Z,0.92
2023-03-11T00:33:41.083Z,1.07
2023-03-11T00:36:12.653Z,0.91
2023-03-11T00:38:40.622Z,0.85
2023-03-11T00:41:10.003Z,0.88
2023-03-11T00:43:38.762Z,0.94
2023-03-11T00:46:06.698Z,0.91
2023-03-11T00:48:34.679Z,0.69
2023-03-11T00:51:02.577Z,0.73
2023-03-11T00:53:30.504Z,0.76
2023-03-11T00:55:58.557Z,0.72
2023-03-11T00:58:30.753Z,0.76
2023-03-11T01:00:58.731Z,0.57
2023-03-11T01:03:26.661Z,0.75
2023-03-11T01:05:54.623Z,0.90
2023-03-11T01:08:22.539Z,0.65
2023-03-11T01:10:50.449Z,0.45
2023-03-11T01:13:18.408Z,0.42
2023-03-11T01:15:47.709Z,0.53
2023-03-11T01:18:16.035Z,0.53
2023-03-11T01:20:44.169Z,0.54
2023-03-11T01:23:12.565Z,0.59
2023-03-11T01:25:40.736Z,0.75
2023-03-11T01:28:09.349Z,0.47
2023-03-11T01:30:39.173Z,0.54
2023-03-11T01:33:09.601Z,0.42
2023-03-11T01:35:40.046Z,0.31
2023-03-11T01:38:07.992Z,0.51
2023-03-11T01:40:37.699Z,0.39
2023-03-11T01:43:07.979Z,0.48
2023-03-11T01:45:43.786Z,0.53
2023-03-11T01:48:13.130Z,0.42
2023-03-11T01:50:44.783Z,0.48
2023-03-11T01:53:13.952Z,0.48
2023-03-11T01:55:42.033Z,0.53
2023-03-11T01:58:13.263Z,0.46
2023-03-11T02:00:41.294Z,0.56
2023-03-11T02:03:13.150Z,0.56
2023-03-11T02:05:41.817Z,0.76
2023-03-11T02:08:10.015Z,0.77
2023-03-11T02:10:39.029Z,0.73
2023-03-11T02:13:07.096Z,0.59
2023-03-11T02:15:35.031Z,0.73
2023-03-11T02:18:04.868Z,0.66
2023-03-11T02:20:42.145Z,0.53
2023-03-11T02:23:10.249Z,0.64
2023-03-11T02:25:43.100Z,0.51
2023-03-11T02:28:14.209Z,0.90
2023-03-11T02:30:43.655Z,0.84
2023-03-11T02:33:12.186Z,0.81
2023-03-11T02:35:40.199Z,0.76
2023-03-11T02:38:08.362Z,0.52
2023-03-11T02:40:57.164Z,0.51
2023-03-11T02:43:31.378Z,0.60
2023-03-11T02:45:59.757Z,0.57
2023-03-11T02:48:27.764Z,0.40
2023-03-11T02:50:55.797Z,0.50
2023-03-11T02:53:23.760Z,0.65
2023-03-11T02:55:51.656Z,0.48
2023-03-11T02:58:19.634Z,0.38
2023-03-11T03:00:49.023Z,0.54
2023-03-11T03:03:16.996Z,0.52
2023-03-11T03:05:46.024Z,0.62
2023-03-11T03:08:13.977Z,0.55
2023-03-11T03:10:41.886Z,0.71
2023-03-11T03:13:09.875Z,0.71
2023-03-11T03:15:37.853Z,0.68
2023-03-11T03:18:07.289Z,0.48
2023-03-11T03:20:35.368Z,0.67
2023-03-11T03:23:03.375Z,0.45
2023-03-11T03:25:31.539Z,0.16
2023-03-11T03:27:59.474Z,0.32
2023-03-11T03:30:28.439Z,0.08
2023-03-11T03:32:56.347Z,-0.05
2023-03-11T03:35:25.722Z,-0.07
2023-03-11T03:37:53.623Z,0.12
2023-03-11T03:40:21.585Z,0.15
2023-03-11T03:42:49.735Z,0.12
2023-03-11T03:45:17.998Z,0.33
2023-03-11T03:47:45.915Z,0.28
2023-03-11T03:50:14.391Z,0.12
2023-03-11T03:52:43.695Z,0.38
2023-03-11T03:55:11.975Z,0.28
2023-03-11T03:57:39.916Z,0.25
2023-03-11T04:00:10.162Z,0.00
2023-03-11T04:02:38.176Z,0.63
2023-03-11T04:05:07.169Z,0.42
2023-03-11T04:07:35.806Z,0.34
2023-03-11T04:10:05.938Z,0.06
2023-03-11T04:12:33.979Z,0.29
2023-03-11T04:15:01.885Z,0.22
2023-03-11T04:17:29.759Z,0.22
2023-03-11T04:19:57.731Z,0.29
2023-03-11T04:22:25.642Z,0.15
2023-03-11T04:24:53.557Z,0.17
2023-03-11T04:27:22.869Z,-0.12
2023-03-11T04:29:50.757Z,-0.31
2023-03-11T04:32:18.670Z,-0.03
2023-03-11T04:34:46.647Z,-0.27
2023-03-11T04:37:14.568Z,-0.41
2023-03-11T04:39:42.495Z,-0.40
2023-03-11T04:42:10.454Z,-0.22
2023-03-11T04:44:39.869Z,-0.33
2023-03-11T04:47:07.885Z,-0.34
2023-03-11T04:49:35.849Z,-0.31
2023-03-11T04:52:03.787Z,-0.52
2023-03-11T04:54:31.712Z,-0.64
2023-03-11T04:56:59.666Z,-0.23
2023-03-11T04:59:27.543Z,-0.51
2023-03-11T05:01:56.808Z,-0.40
2023-03-11T05:04:24.825Z,-0.36
2023-03-11T05:06:52.753Z,-0.46
2023-03-11T05:09:20.686Z,-0.31
2023-03-11T05:11:48.642Z,-0.37
2023-03-11T05:14:16.549Z,-0.52
2023-03-11T05:16:44.474Z,-0.49
2023-03-11T05:19:32.087Z,-0.09
2023-03-11T05:22:00.233Z,-0.48
2023-03-11T05:24:28.737Z,-0.52
2023-03-11T05:26:57.043Z,-0.42
2023-03-11T05:29:25.248Z,-0.27
2023-03-11T05:31:53.641Z,-0.29
2023-03-11T05:34:23.066Z,-0.31
2023-03-11T05:36:50.972Z,-0.23
2023-03-11T05:39:18.871Z,-0.38
2023-03-11T05:41:46.832Z,-0.26
2023-03-11T05:44:14.805Z,0.16
2023-03-11T05:46:42.720Z,0.04
2023-03-11T05:49:10.753Z,0.06
2023-03-11T05:51:40.441Z,0.20
2023-03-11T05:54:14.930Z,-0.05
2023-03-11T05:56:43.093Z,-0.23
2023-03-11T05:59:11.498Z,-0.16
2023-03-11T06:01:39.791Z,-0.30
2023-03-11T06:04:08.192Z,-0.10
2023-03-11T06:06:36.209Z,-0.40
2023-03-11T06:09:05.588Z,-0.50
2023-03-11T06:11:33.630Z,-0.55
2023-03-11T06:14:01.523Z,-0.49
2023-03-11T06:16:29.534Z,-0.45
2023-03-11T06:19:00.686Z,-0.46
2023-03-11T06:21:28.762Z,-0.60
2023-03-11T06:23:56.780Z,-0.44
2023-03-11T06:26:26.372Z,-0.54
2023-03-11T06:28:54.490Z,-0.53
2023-03-11T06:31:24.398Z,-0.49
2023-03-11T06:33:52.737Z,-0.49
2023-03-11T06:36:21.461Z,-0.58
2023-03-11T06:38:50.190Z,-0.63
2023-03-11T06:41:18.157Z,-0.74
2023-03-11T06:43:47.504Z,-0.72
2023-03-11T06:46:17.686Z,-0.70
2023-03-11T06:48:46.937Z,-0.67
2023-03-11T06:51:15.300Z,-0.63
2023-03-11T06:53:43.340Z,-0.62
2023-03-11T06:56:12.870Z,-0.66
2023-03-11T06:58:42.605Z,-0.57
2023-03-11T07:01:13.818Z,-0.62
2023-03-11T07:03:41.820Z,-0.39
2023-03-11T07:06:13.180Z,-0.38
2023-03-11T07:08:41.105Z,-0.33
2023-03-11T07:11:11.139Z,-0.36
2023-03-11T07:13:39.070Z,-0.27
2023-03-11T07:16:08.618Z,0.12
2023-03-11T07:18:38.368Z,0.29
2023-03-11T07:21:08.081Z,0.37
2023-03-11T07:23:37.025Z,0.35
2023-03-11T07:26:05.191Z,0.40
2023-03-11T07:28:33.343Z,0.39
2023-03-11T07:31:01.229Z,0.45
2023-03-11T07:33:29.378Z,0.50
2023-03-11T07:35:58.720Z,0.49
2023-03-11T07:38:26.664Z,0.49
2023-03-11T07:40:59.706Z,0.49
2023-03-11T07:43:27.980Z,0.11
2023-03-11T07:46:04.410Z,0.13
2023-03-11T07:48:32.608Z,0.06
2023-03-11T07:51:07.158Z,0.00
2023-03-11T07:53:35.490Z,-0.07
2023-03-11T07:56:03.956Z,0.14
2023-03-11T07:58:32.310Z,0.11
2023-03-11T08:01:06.938Z,0.10
2023-03-11T08:03:34.983Z,0.25
2023-03-11T08:06:02.938Z,0.24
2023-03-11T08:08:32.206Z,0.25
2023-03-11T08:11:04.589Z,0.27
2023-03-11T08:13:32.516Z,0.49
2023-03-11T08:16:00.503Z,0.50
2023-03-11T08:18:28.608Z,0.52
2023-03-11T08:24:00.760Z,0.75
2023-03-11T08:26:29.099Z,0.86
2023-03-11T08:28:57.433Z,0.80
2023-03-11T08:31:27.040Z,0.85
2023-03-11T08:33:58.233Z,0.95
2023-03-11T08:36:26.393Z,1.07
2023-03-11T08:38:54.656Z,1.17
2023-03-11T08:41:24.229Z,1.12
2023-03-11T08:43:52.485Z,1.18
2023-03-11T08:46:25.393Z,1.30
2023-03-11T08:48:53.861Z,1.21
2023-03-11T08:51:22.225Z,1.34
2023-03-11T08:53:53.160Z,1.50
2023-03-11T08:56:23.765Z,1.50
2023-03-11T08:58:52.016Z,1.40
2023-03-11T09:01:20.559Z,1.43
2023-03-11T09:03:48.759Z,1.56
2023-03-11T09:06:19.828Z,1.41
2023-03-11T09:09:11.131Z,1.50
2023-03-11T09:11:41.704Z,1.56
2023-03-11T09:14:09.622Z,1.68
2023-03-11T09:16:52.709Z,1.73
2023-03-11T09:19:20.698Z,1.65
2023-03-11T09:21:48.622Z,1.85
2023-03-11T09:24:16.540Z,1.69
2023-03-11T09:26:45.862Z,1.80
2023-03-11T09:29:13.772Z,1.93
2023-03-11T09:31:41.730Z,2.16
2023-03-11T09:34:09.691Z,2.41
2023-03-11T09:36:37.584Z,2.39
2023-03-11T09:39:05.547Z,2.62
2023-03-11T09:41:47.848Z,2.72
2023-03-11T09:44:30.168Z,2.60
2023-03-11T09:47:34.418Z,2.70
2023-03-11T09:50:25.235Z,2.64
2023-03-11T09:53:00.105Z,2.58
2023-03-11T09:55:40.200Z,2.60
2023-03-11T09:58:13.721Z,2.62
2023-03-11T10:00:43.250Z,2.87
2023-03-11T10:03:19.624Z,2.84
2023-03-11T10:05:47.581Z,2.72
2023-03-11T10:08:22.969Z,2.75
2023-03-11T10:10:56.057Z,2.75
2023-03-11T10:13:29.706Z,2.68
2023-03-11T10:16:05.260Z,2.96
2023-03-11T10:18:47.799Z,2.96
2023-03-11T10:21:23.832Z,3.19
2023-03-11T10:24:01.644Z,3.23
2023-03-11T10:26:32.903Z,3.15
2023-03-11T10:29:05.013Z,3.17
2023-03-11T10:31:38.582Z,3.10
2023-03-11T10:34:14.010Z,3.15
2023-03-11T10:36:55.317Z,3.13
2023-03-11T10:39:24.029Z,3.33
2023-03-11T10:41:55.279Z,3.37
2023-03-11T10:44:27.373Z,3.57
2023-03-11T10:46:56.643Z,3.45
2023-03-11T10:49:24.561Z,3.54
2023-03-11T10:51:53.695Z,3.58
2023-03-11T10:54:25.345Z,3.71
2023-03-11T10:56:57.387Z,3.93
2023-03-11T10:59:30.858Z,3.84
2023-03-11T11:02:04.532Z,3.98
2023-03-11T11:04:37.207Z,4.04
2023-03-11T11:07:30.218Z,4.12
2023-03-11T11:10:19.678Z,4.28
2023-03-11T11:12:56.996Z,4.45
2023-03-11T11:15:27.107Z,4.47
2023-03-11T11:18:07.803Z,4.42
2023-03-11T11:20:56.642Z,4.37
2023-03-11T11:24:03.384Z,4.63
2023-03-11T11:26:31.329Z,4.55
2023-03-11T11:29:14.547Z,4.58
2023-03-11T11:31:44.020Z,4.41
2023-03-11T11:34:30.403Z,4.58
2023-03-11T11:37:00.158Z,4.89
2023-03-11T11:39:30.601Z,4.69
2023-03-11T11:41:58.540Z,4.76
2023-03-11T11:44:31.699Z,4.89
2023-03-11T11:47:03.151Z,5.01
2023-03-11T11:49:35.850Z,4.99
2023-03-11T11:52:07.287Z,4.94
2023-03-11T11:54:39.777Z,5.06
2023-03-11T11:57:13.425Z,4.92
2023-03-11T11:59:41.608Z,5.08
2023-03-11T12:02:21.150Z,5.17
2023-03-11T12:04:56.313Z,4.91
2023-03-11T12:07:36.460Z,5.22
2023-03-11T12:10:23.004Z,5.30
2023-03-11T12:13:08.540Z,5.38
2023-03-11T12:15:40.473Z,5.32
2023-03-11T12:18:13.200Z,5.61
2023-03-11T12:20:45.029Z,5.28
2023-03-11T12:23:19.812Z,5.60
2023-03-11T12:25:59.844Z,5.92
2023-03-11T12:28:36.400Z,5.83
2023-03-11T12:31:07.009Z,5.41
2023-03-11T12:33:38.136Z,5.55
2023-03-11T12:36:10.373Z,5.89
2023-03-11T12:38:40.767Z,6.02
2023-03-11T12:41:09.883Z,5.81
2023-03-11T12:44:03.161Z,5.76
2023-03-11T12:47:01.697Z,6.02
2023-03-11T12:49:31.706Z,5.76
2023-03-11T12:52:06.055Z,5.54
2023-03-11T12:54:35.665Z,5.45
2023-03-11T12:57:06.618Z,5.46
2023-03-11T12:59:51.696Z,5.50
2023-03-11T13:02:31.372Z,5.46
2023-03-11T13:05:01.186Z,5.10
2023-03-11T13:07:44.300Z,5.13
2023-03-11T13:10:16.279Z,5.46
2023-03-11T13:12:45.816Z,5.55
2023-03-11T13:15:36.304Z,5.32
2023-03-11T13:18:14.540Z,5.28
2023-03-11T13:20:51.702Z,5.64
2023-03-11T13:23:40.500Z,5.50
2023-03-11T13:26:33.221Z,5.74
2023-03-11T13:29:40.930Z,5.82
2023-03-11T13:32:27.465Z,6.17
2023-03-11T13:35:04.247Z,6.31
2023-03-11T13:37:42.148Z,5.84
2023-03-11T13:40:24.320Z,5.68
2023-03-11T13:42:53.287Z,6.32
2023-03-11T13:45:28.833Z,5.92
2023-03-11T13:48:00.365Z,5.74
2023-03-11T13:50:31.166Z,5.38
2023-03-11T13:53:00.209Z,5.95
2023-03-11T13:55:33.796Z,6.45
2023-03-11T13:58:01.851Z,6.09
2023-03-11T14:00:31.392Z,5.76
2023-03-11T14:03:02.669Z,5.47
2023-03-11T14:05:32.798Z,5.85
2023-03-11T14:08:13.274Z,6.04
2023-03-11T14:10:52.992Z,6.37
2023-03-11T14:13:21.112Z,6.51
2023-03-11T14:15:53.823Z,6.79
2023-03-11T14:18:30.501Z,6.34
2023-03-11T14:20:58.934Z,5.88
2023-03-11T14:23:29.923Z,5.76
2023-03-11T14:26:07.980Z,5.41
2023-03-11T14:28:40.160Z,6.08
2023-03-11T14:31:08.375Z,6.24
2023-03-11T14:33:36.548Z,6.03
2023-03-11T14:36:06.140Z,5.84
2023-03-11T14:38:34.624Z,5.33
2023-03-11T14:41:05.958Z,5.41
2023-03-11T14:43:36.030Z,5.70
2023-03-11T14:46:04.967Z,6.24
2023-03-11T14:48:35.867Z,7.01
2023-03-11T14:51:05.579Z,7.43
2023-03-11T14:53:37.685Z,7.15
2023-03-11T14:56:09.075Z,7.60
2023-03-11T14:58:38.680Z,7.35
2023-03-11T15:01:10.457Z,7.01
2023-03-11T15:03:40.863Z,6.83
2023-03-11T15:06:10.676Z,6.54
2023-03-11T15:08:44.191Z,6.60
2023-03-11T15:11:25.564Z,7.13
2023-03-11T15:13:54.310Z,7.25
2023-03-11T15:16:30.635Z,7.22
2023-03-11T15:19:01.441Z,7.81
2023-03-11T15:21:30.107Z,7.59
2023-03-11T15:24:02.678Z,7.36
2023-03-11T15:26:33.401Z,6.17
2023-03-11T15:29:02.848Z,5.89
2023-03-11T15:31:36.862Z,5.49
2023-03-11T15:34:26.310Z,5.17
2023-03-11T15:37:03.646Z,5.15
2023-03-11T15:39:48.196Z,5.07
2023-03-11T15:42:21.858Z,4.62
2023-03-11T15:45:13.361Z,4.02
2023-03-11T15:47:41.432Z,4.09
2023-03-11T15:50:24.897Z,3.45
2023-03-11T15:52:53.630Z,3.91
2023-03-11T15:55:21.570Z,4.40
2023-03-11T15:57:52.286Z,4.17
2023-03-11T16:00:22.292Z,3.83
2023-03-11T16:02:50.851Z,4.16
2023-03-11T16:05:20.969Z,4.25
2023-03-11T16:07:49.275Z,3.97
2023-03-11T16:10:19.775Z,3.90
2023-03-11T16:12:47.856Z,3.54
2023-03-11T16:15:24.723Z,3.32
2023-03-11T16:17:53.182Z,3.67
2023-03-11T16:20:22.271Z,3.44
2023-03-11T16:22:51.662Z,3.11
2023-03-11T16:25:23.316Z,3.21
2023-03-11T16:27:52.269Z,3.20
2023-03-11T16:30:22.347Z,3.45
2023-03-11T16:32:50.594Z,3.61
2023-03-11T16:35:18.701Z,3.21
2023-03-11T16:37:47.123Z,3.03
2023-03-11T16:40:17.275Z,3.03
2023-03-11T16:42:45.443Z,3.37
2023-03-11T16:45:13.786Z,3.21
2023-03-11T16:47:43.148Z,2.91
2023-03-11T16:50:12.461Z,2.94
2023-03-11T16:53:40.084Z,2.86
2023-03-11T16:56:08.534Z,2.87
2023-03-11T17:03:41.953Z,2.31
2023-03-11T17:06:12.132Z,2.48
2023-03-11T17:08:40.150Z,2.35
2023-03-11T17:11:15.505Z,2.25
2023-03-11T17:16:25.258Z,2.33
2023-03-11T17:18:53.260Z,2.46
2023-03-11T17:21:22.602Z,2.41
2023-03-11T17:23:51.229Z,2.43
2023-03-11T17:26:19.272Z,2.40
2023-03-11T17:28:47.184Z,2.36
2023-03-11T17:50:44.625Z,2.15
2023-03-11T17:53:12.550Z,2.18
2023-03-11T17:55:41.189Z,1.96
2023-03-11T17:58:09.540Z,1.97
2023-03-11T18:00:37.632Z,1.92
2023-03-11T18:03:05.543Z,2.01
2023-03-11T18:05:33.520Z,2.15
2023-03-11T18:08:02.826Z,2.05
2023-03-11T18:10:30.712Z,2.11
2023-03-11T18:12:58.779Z,2.05
2023-03-11T18:15:26.708Z,1.94
2023-03-11T18:17:56.942Z,1.96
2023-03-11T18:20:24.941Z,1.83
2023-03-11T18:22:53.340Z,1.78
2023-03-11T18:26:07.223Z,1.85
2023-03-11T18:33:48.437Z,1.75
2023-03-11T18:36:30.236Z,1.82
2023-03-11T18:39:01.296Z,1.70
2023-03-11T18:41:33.906Z,1.59
2023-03-11T18:44:02.429Z,1.77
2023-03-11T18:46:32.504Z,1.64
2023-03-11T18:49:23.588Z,1.68
2023-03-11T18:51:51.541Z,1.74
2023-03-11T18:54:23.655Z,1.60
2023-03-11T18:56:53.027Z,1.68
2023-03-11T18:59:20.974Z,1.67
2023-03-11T19:01:50.610Z,1.72
2023-03-11T19:04:18.544Z,1.66
2023-03-11T19:06:55.675Z,1.58
2023-03-11T19:09:23.564Z,1.59
2023-03-11T19:11:52.872Z,1.58
2023-03-11T19:14:20.787Z,1.54
2023-03-11T19:16:49.028Z,1.59
2023-03-11T19:19:16.941Z,1.60
2023-03-11T19:21:45.753Z,1.62
2023-03-11T19:24:13.776Z,1.61
2023-03-11T19:26:45.092Z,1.55
2023-03-11T19:29:15.522Z,1.66
2023-03-11T19:31:44.164Z,1.60
2023-03-11T19:34:12.379Z,1.61
2023-03-11T19:36:40.575Z,1.55
2023-03-11T19:39:08.711Z,1.59
2023-03-11T19:41:36.655Z,1.53
2023-03-11T19:44:04.640Z,1.66
2023-03-11T19:46:34.893Z,1.66
2023-03-11T19:49:03.265Z,1.70
2023-03-11T19:51:46.488Z,1.78
2023-03-11T19:54:17.191Z,1.71
2023-03-11T19:56:45.172Z,1.68
2023-03-11T19:59:13.192Z,1.74
2023-03-11T20:01:43.273Z,1.76
2023-03-11T20:04:11.544Z,1.70
2023-03-11T20:06:39.555Z,1.71
2023-03-11T20:09:07.897Z,1.71
2023-03-11T20:11:39.142Z,1.66
2023-03-11T20:14:07.491Z,1.69
2023-03-11T20:16:35.430Z,1.76
2023-03-11T20:19:05.041Z,1.74
2023-03-11T20:21:33.319Z,1.73
2023-03-11T20:24:01.642Z,1.70
2023-03-11T20:26:29.601Z,1.70
2023-03-11T20:28:58.232Z,1.67
2023-03-11T20:31:27.406Z,1.64
2023-03-11T20:33:56.391Z,1.62
2023-03-11T20:36:27.808Z,1.63
2023-03-11T20:38:56.573Z,1.63
2023-03-11T20:41:25.375Z,1.63
2023-03-11T20:43:54.302Z,1.71
2023-03-11T20:46:22.365Z,1.66
2023-03-11T20:48:50.405Z,1.69
2023-03-11T20:51:20.789Z,1.67
2023-03-11T20:53:50.371Z,1.67
2023-03-11T20:56:20.468Z,1.69
2023-03-11T20:58:50.979Z,1.65
2023-03-11T21:01:20.600Z,1.62
2023-03-11T21:03:49.057Z,1.68
2023-03-11T21:06:18.729Z,1.66
2023-03-11T21:08:47.098Z,1.56
2023-03-11T21:11:16.916Z,1.58
2023-03-11T21:13:44.901Z,1.58
2023-03-11T21:16:12.948Z,1.64
2023-03-11T21:18:41.197Z,1.58
2023-03-11T21:21:11.748Z,1.67
2023-03-11T21:23:39.950Z,1.58
2023-03-11T21:26:08.666Z,1.61
2023-03-11T21:28:39.920Z,1.60
2023-03-11T21:31:11.566Z,1.56
2023-03-11T21:33:40.276Z,1.62
2023-03-11T21:36:09.642Z,1.56
2023-03-11T21:38:37.922Z,1.64
2023-03-11T21:41:07.459Z,1.56
2023-03-11T21:43:37.581Z,1.55
2023-03-11T21:46:06.589Z,1.53
2023-03-11T21:48:35.450Z,1.48
2023-03-11T21:51:03.885Z,1.56
2023-03-11T21:53:32.494Z,1.44
2023-03-11T21:56:01.399Z,1.52
2023-03-11T21:58:29.330Z,1.46
2023-03-11T22:00:58.755Z,1.51
2023-03-11T22:03:26.987Z,1.46
2023-03-11T22:05:58.791Z,1.50
2023-03-11T22:08:27.519Z,1.39
2023-03-11T22:10:56.049Z,1.38
2023-03-11T22:13:24.729Z,1.34
2023-03-11T22:15:53.101Z,1.38
2023-03-11T22:18:22.622Z,1.40
2023-03-11T22:20:50.571Z,1.40
2023-03-11T22:23:18.679Z,1.43
2023-03-11T22:25:46.589Z,1.36
2023-03-11T22:28:14.848Z,1.36
2023-03-11T22:30:42.781Z,1.35
2023-03-11T22:33:10.724Z,1.30
2023-03-11T22:35:40.111Z,1.33
2023-03-11T22:38:08.349Z,1.32
2023-03-11T22:40:36.314Z,1.37
2023-03-11T22:43:04.247Z,1.28
2023-03-11T22:45:32.216Z,1.17
2023-03-11T22:48:00.511Z,1.19
2023-03-11T22:50:28.491Z,1.07
2023-03-11T22:52:57.814Z,1.16
2023-03-11T22:55:25.880Z,1.09
2023-03-11T22:57:53.825Z,1.08
2023-03-11T23:00:23.327Z,1.08
2023-03-11T23:02:54.541Z,1.06
2023-03-11T23:05:22.901Z,1.03
2023-03-11T23:07:51.459Z,0.96
2023-03-11T23:10:21.955Z,0.96
2023-03-11T23:12:50.352Z,0.98
2023-03-11T23:15:19.745Z,0.91
2023-03-11T23:17:47.833Z,0.94
2023-03-11T23:20:16.686Z,0.99
2023-03-11T23:22:44.936Z,0.96
2023-03-11T23:25:15.179Z,0.90
2023-03-11T23:27:45.793Z,0.85
2023-03-11T23:30:16.039Z,0.83
2023-03-11T23:32:44.583Z,0.78
2023-03-11T23:35:12.953Z,0.77
2023-03-11T23:37:40.989Z,0.84
2023-03-11T23:40:10.962Z,0.84
2023-03-11T23:42:38.942Z,0.90
2023-03-11T23:45:10.214Z,0.92
2023-03-11T23:47:38.102Z,0.85
2023-03-11T23:50:07.142Z,0.90
2023-03-11T23:52:35.127Z,0.93
2023-03-11T23:55:03.309Z,0.84
2023-03-11T23:57:31.214Z,0.77
2023-03-11T23:59:59.254Z,0.82
